sensor_id;sensor_type;location;lat;lon;timestamp;temperature;humidity
3308;DHT22;1666;48.898;9.182;2023-02-16T00:02:03;0.80;41.50
3308;DHT22;1666;48.898;9.182;2023-02-16T00:04:33;0.80;42.00
3308;DHT22;1666;48.898;9.182;2023-02-16T00:07:03;0.80;42.70
3308;DHT22;1666;48.898;9.182;2023-02-16T00:09:32;0.70;42.60
3308;DHT22;1666;48.898;9.182;2023-02-16T00:12:04;0.70;42.60
3308;DHT22;1666;48.898;9.182;2023-02-16T00:14:52;0.70;42.80
3308;DHT22;1666;48.898;9.182;2023-02-16T00:17:24;0.70;44.30
3308;DHT22;1666;48.898;9.182;2023-02-16T00:19:54;0.70;44.50
3308;DHT22;1666;48.898;9.182;2023-02-16T00:22:24;0.70;44.80
3308;DHT22;1666;48.898;9.182;2023-02-16T00:24:54;0.80;45.50
3308;DHT22;1666;48.898;9.182;2023-02-16T00:27:23;0.60;44.30
3308;DHT22;1666;48.898;9.182;2023-02-16T00:29:53;0.60;44.40
3308;DHT22;1666;48.898;9.182;2023-02-16T00:32:26;0.50;44.50
3308;DHT22;1666;48.898;9.182;2023-02-16T00:34:55;0.40;44.30
3308;DHT22;1666;48.898;9.182;2023-02-16T00:37:25;0.30;44.10
3308;DHT22;1666;48.898;9.182;2023-02-16T00:39:55;0.40;44.60
3308;DHT22;1666;48.898;9.182;2023-02-16T00:42:28;0.40;45.30
3308;DHT22;1666;48.898;9.182;2023-02-16T00:45:00;0.40;45.30
3308;DHT22;1666;48.898;9.182;2023-02-16T00:47:36;0.40;46.10
3308;DHT22;1666;48.898;9.182;2023-02-16T00:50:13;0.40;46.00
3308;DHT22;1666;48.898;9.182;2023-02-16T00:52:44;0.40;45.90
3308;DHT22;1666;48.898;9.182;2023-02-16T00:55:17;0.30;46.30
3308;DHT22;1666;48.898;9.182;2023-02-16T00:57:50;0.40;46.50
3308;DHT22;1666;48.898;9.182;2023-02-16T01:00:23;0.50;47.40
3308;DHT22;1666;48.898;9.182;2023-02-16T01:03:00;0.50;47.30
3308;DHT22;1666;48.898;9.182;2023-02-16T01:05:31;0.40;47.10
3308;DHT22;1666;48.898;9.182;2023-02-16T01:08:00;0.50;47.90
3308;DHT22;1666;48.898;9.182;2023-02-16T01:10:43;0.50;47.90
3308;DHT22;1666;48.898;9.182;2023-02-16T01:13:28;0.40;47.40
3308;DHT22;1666;48.898;9.182;2023-02-16T01:15:58;0.30;47.40
3308;DHT22;1666;48.898;9.182;2023-02-16T01:18:31;0.30;47.60
3308;DHT22;1666;48.898;9.182;2023-02-16T01:21:00;0.30;47.40
3308;DHT22;1666;48.898;9.182;2023-02-16T01:23:31;0.30;48.00
3308;DHT22;1666;48.898;9.182;2023-02-16T01:26:01;0.30;48.70
3308;DHT22;1666;48.898;9.182;2023-02-16T01:28:33;0.30;48.40
3308;DHT22;1666;48.898;9.182;2023-02-16T01:31:04;0.30;48.70
3308;DHT22;1666;48.898;9.182;2023-02-16T01:33:37;0.40;49.20
3308;DHT22;1666;48.898;9.182;2023-02-16T01:36:18;0.40;49.50
3308;DHT22;1666;48.898;9.182;2023-02-16T01:38:51;0.40;49.20
3308;DHT22;1666;48.898;9.182;2023-02-16T01:41:29;0.40;49.30
3308;DHT22;1666;48.898;9.182;2023-02-16T01:44:10;0.40;49.30
3308;DHT22;1666;48.898;9.182;2023-02-16T01:46:44;0.30;48.80
3308;DHT22;1666;48.898;9.182;2023-02-16T01:49:20;0.30;49.20
3308;DHT22;1666;48.898;9.182;2023-02-16T01:51:55;0.30;49.20
3308;DHT22;1666;48.898;9.182;2023-02-16T01:54:33;0.40;49.70
3308;DHT22;1666;48.898;9.182;2023-02-16T01:57:10;0.50;50.00
3308;DHT22;1666;48.898;9.182;2023-02-16T02:00:00;0.60;50.70
3308;DHT22;1666;48.898;9.182;2023-02-16T02:02:34;0.60;49.60
3308;DHT22;1666;48.898;9.182;2023-02-16T02:05:17;0.70;50.20
3308;DHT22;1666;48.898;9.182;2023-02-16T02:08:06;0.60;49.10
3308;DHT22;1666;48.898;9.182;2023-02-16T02:10:45;0.60;49.50
3308;DHT22;1666;48.898;9.182;2023-02-16T02:13:21;0.50;48.60
3308;DHT22;1666;48.898;9.182;2023-02-16T02:15:53;0.60;49.50
3308;DHT22;1666;48.898;9.182;2023-02-16T02:18:23;0.60;49.20
3308;DHT22;1666;48.898;9.182;2023-02-16T02:24:31;0.50;48.80
3308;DHT22;1666;48.898;9.182;2023-02-16T02:27:19;0.50;48.00
3308;DHT22;1666;48.898;9.182;2023-02-16T02:30:07;0.40;46.90
3308;DHT22;1666;48.898;9.182;2023-02-16T02:32:51;0.20;46.30
3308;DHT22;1666;48.898;9.182;2023-02-16T02:35:34;0.10;46.20
3308;DHT22;1666;48.898;9.182;2023-02-16T02:38:11;0.00;45.70
3308;DHT22;1666;48.898;9.182;2023-02-16T02:40:55;-0.10;45.30
3308;DHT22;1666;48.898;9.182;2023-02-16T02:43:35;-0.10;45.40
3308;DHT22;1666;48.898;9.182;2023-02-16T02:46:10;-0.10;46.10
3308;DHT22;1666;48.898;9.182;2023-02-16T02:48:42;0.00;46.20
3308;DHT22;1666;48.898;9.182;2023-02-16T02:51:12;0.00;46.20
3308;DHT22;1666;48.898;9.182;2023-02-16T02:54:02;0.10;46.60
3308;DHT22;1666;48.898;9.182;2023-02-16T02:56:48;0.20;46.50
3308;DHT22;1666;48.898;9.182;2023-02-16T02:59:36;0.30;46.50
3308;DHT22;1666;48.898;9.182;2023-02-16T03:02:22;0.40;46.60
3308;DHT22;1666;48.898;9.182;2023-02-16T03:04:54;0.30;45.40
3308;DHT22;1666;48.898;9.182;2023-02-16T03:07:26;0.30;45.30
3308;DHT22;1666;48.898;9.182;2023-02-16T03:10:14;0.30;44.50
3308;DHT22;1666;48.898;9.182;2023-02-16T03:12:57;0.40;44.30
3308;DHT22;1666;48.898;9.182;2023-02-16T03:15:30;0.40;44.50
3308;DHT22;1666;48.898;9.182;2023-02-16T03:18:01;0.40;44.00
3308;DHT22;1666;48.898;9.182;2023-02-16T03:20:45;0.50;43.10
3308;DHT22;1666;48.898;9.182;2023-02-16T03:23:28;0.40;41.40
3308;DHT22;1666;48.898;9.182;2023-02-16T03:26:12;0.30;40.40
3308;DHT22;1666;48.898;9.182;2023-02-16T03:28:55;0.30;40.60
3308;DHT22;1666;48.898;9.182;2023-02-16T03:31:41;0.40;40.20
3308;DHT22;1666;48.898;9.182;2023-02-16T03:34:12;0.50;39.90
3308;DHT22;1666;48.898;9.182;2023-02-16T03:36:45;0.50;39.80
3308;DHT22;1666;48.898;9.182;2023-02-16T03:39:16;0.50;38.50
3308;DHT22;1666;48.898;9.182;2023-02-16T03:41:48;0.30;37.80
3308;DHT22;1666;48.898;9.182;2023-02-16T03:44:20;0.40;38.40
3308;DHT22;1666;48.898;9.182;2023-02-16T03:46:53;0.40;38.30
3308;DHT22;1666;48.898;9.182;2023-02-16T03:49:23;0.40;36.80
3308;DHT22;1666;48.898;9.182;2023-02-16T03:51:52;0.20;35.60
3308;DHT22;1666;48.898;9.182;2023-02-16T03:54:22;0.10;35.40
3308;DHT22;1666;48.898;9.182;2023-02-16T03:56:52;-0.10;35.20
3308;DHT22;1666;48.898;9.182;2023-02-16T03:59:22;-0.10;35.60
3308;DHT22;1666;48.898;9.182;2023-02-16T04:01:54;-0.10;36.30
3308;DHT22;1666;48.898;9.182;2023-02-16T04:04:25;-0.20;35.70
3308;DHT22;1666;48.898;9.182;2023-02-16T04:06:55;-0.30;36.00
3308;DHT22;1666;48.898;9.182;2023-02-16T04:09:25;-0.30;36.60
3308;DHT22;1666;48.898;9.182;2023-02-16T04:11:54;-0.30;37.30
3308;DHT22;1666;48.898;9.182;2023-02-16T04:14:37;-0.30;37.50
3308;DHT22;1666;48.898;9.182;2023-02-16T04:17:12;-0.10;38.50
3308;DHT22;1666;48.898;9.182;2023-02-16T04:19:42;0.00;39.00
3308;DHT22;1666;48.898;9.182;2023-02-16T04:22:11;0.20;38.90
3308;DHT22;1666;48.898;9.182;2023-02-16T04:24:41;0.20;38.30
3308;DHT22;1666;48.898;9.182;2023-02-16T04:27:11;0.30;38.30
3308;DHT22;1666;48.898;9.182;2023-02-16T04:29:41;0.50;38.20
3308;DHT22;1666;48.898;9.182;2023-02-16T04:32:13;0.50;37.50
3308;DHT22;1666;48.898;9.182;2023-02-16T04:34:43;0.50;35.30
3308;DHT22;1666;48.898;9.182;2023-02-16T04:37:13;0.50;35.00
3308;DHT22;1666;48.898;9.182;2023-02-16T04:39:43;0.50;33.70
3308;DHT22;1666;48.898;9.182;2023-02-16T04:42:13;0.50;32.40
3308;DHT22;1666;48.898;9.182;2023-02-16T04:44:43;0.60;32.20
3308;DHT22;1666;48.898;9.182;2023-02-16T04:47:15;0.60;30.50
3308;DHT22;1666;48.898;9.182;2023-02-16T04:49:45;0.50;29.90
3308;DHT22;1666;48.898;9.182;2023-02-16T04:52:16;0.50;30.10
3308;DHT22;1666;48.898;9.182;2023-02-16T04:54:46;0.50;30.10
3308;DHT22;1666;48.898;9.182;2023-02-16T04:57:16;0.60;30.10
3308;DHT22;1666;48.898;9.182;2023-02-16T04:59:47;0.50;29.20
3308;DHT22;1666;48.898;9.182;2023-02-16T05:02:19;0.30;28.50
3308;DHT22;1666;48.898;9.182;2023-02-16T05:04:49;0.40;29.10
3308;DHT22;1666;48.898;9.182;2023-02-16T05:07:19;0.30;30.00
3308;DHT22;1666;48.898;9.182;2023-02-16T05:09:49;0.20;29.10
3308;DHT22;1666;48.898;9.182;2023-02-16T05:12:19;0.20;29.90
3308;DHT22;1666;48.898;9.182;2023-02-16T05:15:01;0.10;29.60
3308;DHT22;1666;48.898;9.182;2023-02-16T05:17:34;0.10;29.90
3308;DHT22;1666;48.898;9.182;2023-02-16T05:20:05;0.10;30.20
3308;DHT22;1666;48.898;9.182;2023-02-16T05:22:35;0.10;30.50
3308;DHT22;1666;48.898;9.182;2023-02-16T05:25:05;0.10;31.10
3308;DHT22;1666;48.898;9.182;2023-02-16T05:27:35;0.10;32.50
3308;DHT22;1666;48.898;9.182;2023-02-16T05:30:06;0.20;31.50
3308;DHT22;1666;48.898;9.182;2023-02-16T05:32:39;0.10;32.10
3308;DHT22;1666;48.898;9.182;2023-02-16T05:35:08;0.00;31.50
3308;DHT22;1666;48.898;9.182;2023-02-16T05:37:38;0.10;31.70
3308;DHT22;1666;48.898;9.182;2023-02-16T05:40:10;0.10;31.70
3308;DHT22;1666;48.898;9.182;2023-02-16T05:42:39;0.10;31.60
3308;DHT22;1666;48.898;9.182;2023-02-16T05:45:09;0.10;31.60
3308;DHT22;1666;48.898;9.182;2023-02-16T05:47:42;-0.10;31.20
3308;DHT22;1666;48.898;9.182;2023-02-16T05:50:13;0.00;32.00
3308;DHT22;1666;48.898;9.182;2023-02-16T05:52:42;0.00;31.90
3308;DHT22;1666;48.898;9.182;2023-02-16T05:55:12;0.00;31.60
3308;DHT22;1666;48.898;9.182;2023-02-16T05:57:42;0.10;31.60
3308;DHT22;1666;48.898;9.182;2023-02-16T06:00:14;0.00;31.50
3308;DHT22;1666;48.898;9.182;2023-02-16T06:02:46;0.00;31.90
3308;DHT22;1666;48.898;9.182;2023-02-16T06:05:16;0.10;32.10
3308;DHT22;1666;48.898;9.182;2023-02-16T06:07:46;0.20;32.00
3308;DHT22;1666;48.898;9.182;2023-02-16T06:10:16;0.30;31.30
3308;DHT22;1666;48.898;9.182;2023-02-16T06:12:46;0.20;30.00
3308;DHT22;1666;48.898;9.182;2023-02-16T06:15:16;0.20;30.00
3308;DHT22;1666;48.898;9.182;2023-02-16T06:17:48;0.20;29.50
3308;DHT22;1666;48.898;9.182;2023-02-16T06:20:18;0.20;29.30
3308;DHT22;1666;48.898;9.182;2023-02-16T06:22:48;0.20;28.90
3308;DHT22;1666;48.898;9.182;2023-02-16T06:25:17;0.20;28.80
3308;DHT22;1666;48.898;9.182;2023-02-16T06:27:47;0.20;28.90
3308;DHT22;1666;48.898;9.182;2023-02-16T06:30:18;0.30;28.50
3308;DHT22;1666;48.898;9.182;2023-02-16T06:32:51;0.20;28.00
3308;DHT22;1666;48.898;9.182;2023-02-16T06:35:21;0.20;27.80
3308;DHT22;1666;48.898;9.182;2023-02-16T06:37:50;0.30;28.00
3308;DHT22;1666;48.898;9.182;2023-02-16T06:40:21;0.30;28.40
3308;DHT22;1666;48.898;9.182;2023-02-16T06:42:51;0.40;27.30
3308;DHT22;1666;48.898;9.182;2023-02-16T06:45:21;0.40;27.50
3308;DHT22;1666;48.898;9.182;2023-02-16T06:47:54;0.50;27.00
3308;DHT22;1666;48.898;9.182;2023-02-16T06:50:23;0.60;27.30
3308;DHT22;1666;48.898;9.182;2023-02-16T06:52:54;0.60;26.40
3308;DHT22;1666;48.898;9.182;2023-02-16T06:55:23;0.70;26.00
3308;DHT22;1666;48.898;9.182;2023-02-16T06:57:53;0.70;25.30
3308;DHT22;1666;48.898;9.182;2023-02-16T07:00:23;0.80;24.30
3308;DHT22;1666;48.898;9.182;2023-02-16T07:02:55;0.80;23.40
3308;DHT22;1666;48.898;9.182;2023-02-16T07:05:25;0.90;22.40
3308;DHT22;1666;48.898;9.182;2023-02-16T07:07:55;0.90;21.60
3308;DHT22;1666;48.898;9.182;2023-02-16T07:10:25;0.90;21.20
3308;DHT22;1666;48.898;9.182;2023-02-16T07:13:15;1.00;20.60
3308;DHT22;1666;48.898;9.182;2023-02-16T07:15:45;1.00;19.90
3308;DHT22;1666;48.898;9.182;2023-02-16T07:18:17;1.10;19.20
3308;DHT22;1666;48.898;9.182;2023-02-16T07:20:47;1.20;18.70
3308;DHT22;1666;48.898;9.182;2023-02-16T07:23:17;1.20;18.20
3308;DHT22;1666;48.898;9.182;2023-02-16T07:25:47;1.30;18.00
3308;DHT22;1666;48.898;9.182;2023-02-16T07:28:17;1.30;17.30
3308;DHT22;1666;48.898;9.182;2023-02-16T07:30:47;1.30;17.20
3308;DHT22;1666;48.898;9.182;2023-02-16T07:33:19;1.40;17.40
3308;DHT22;1666;48.898;9.182;2023-02-16T07:35:49;1.60;17.40
3308;DHT22;1666;48.898;9.182;2023-02-16T07:38:19;1.70;16.20
3308;DHT22;1666;48.898;9.182;2023-02-16T07:40:49;1.70;15.00
3308;DHT22;1666;48.898;9.182;2023-02-16T07:43:19;1.80;14.20
3308;DHT22;1666;48.898;9.182;2023-02-16T07:45:48;1.90;13.90
3308;DHT22;1666;48.898;9.182;2023-02-16T07:48:21;2.00;13.10
3308;DHT22;1666;48.898;9.182;2023-02-16T07:50:51;2.10;11.60
3308;DHT22;1666;48.898;9.182;2023-02-16T07:53:21;2.20;10.80
3308;DHT22;1666;48.898;9.182;2023-02-16T07:55:50;2.30;10.10
3308;DHT22;1666;48.898;9.182;2023-02-16T07:58:20;2.30;9.40
3308;DHT22;1666;48.898;9.182;2023-02-16T08:00:56;2.50;9.20
3308;DHT22;1666;48.898;9.182;2023-02-16T08:03:28;2.60;8.70
3308;DHT22;1666;48.898;9.182;2023-02-16T08:05:59;2.70;8.70
3308;DHT22;1666;48.898;9.182;2023-02-16T08:08:29;2.70;8.00
3308;DHT22;1666;48.898;9.182;2023-02-16T08:10:59;2.80;7.60
3308;DHT22;1666;48.898;9.182;2023-02-16T08:13:29;2.90;6.70
3308;DHT22;1666;48.898;9.182;2023-02-16T08:15:59;3.00;5.90
3308;DHT22;1666;48.898;9.182;2023-02-16T08:18:32;3.10;4.90
3308;DHT22;1666;48.898;9.182;2023-02-16T08:21:07;3.20;4.20
3308;DHT22;1666;48.898;9.182;2023-02-16T08:23:40;3.40;4.30
3308;DHT22;1666;48.898;9.182;2023-02-16T08:26:15;3.50;2.50
3308;DHT22;1666;48.898;9.182;2023-02-16T08:28:46;3.60;1.00
3308;DHT22;1666;48.898;9.182;2023-02-16T08:31:18;3.70;1.00
3308;DHT22;1666;48.898;9.182;2023-02-16T08:33:52;3.80;1.00
3308;DHT22;1666;48.898;9.182;2023-02-16T08:36:24;3.80;1.00
3308;DHT22;1666;48.898;9.182;2023-02-16T08:38:55;4.00;1.00
3308;DHT22;1666;48.898;9.182;2023-02-16T08:41:29;4.10;1.00
3308;DHT22;1666;48.898;9.182;2023-02-16T08:43:59;4.20;1.00
3308;DHT22;1666;48.898;9.182;2023-02-16T08:46:31;4.30;1.00
3308;DHT22;1666;48.898;9.182;2023-02-16T08:49:04;4.40;1.00
3308;DHT22;1666;48.898;9.182;2023-02-16T08:51:36;4.40;1.00
3308;DHT22;1666;48.898;9.182;2023-02-16T08:54:13;4.60;1.00
3308;DHT22;1666;48.898;9.182;2023-02-16T08:56:44;4.60;1.00
3308;DHT22;1666;48.898;9.182;2023-02-16T08:59:16;4.70;1.00
3308;DHT22;1666;48.898;9.182;2023-02-16T09:01:47;4.80;1.00
3308;DHT22;1666;48.898;9.182;2023-02-16T09:04:19;4.80;1.00
3308;DHT22;1666;48.898;9.182;2023-02-16T09:06:50;5.00;1.00
3308;DHT22;1666;48.898;9.182;2023-02-16T09:09:21;5.10;1.00
3308;DHT22;1666;48.898;9.182;2023-02-16T09:11:52;5.20;1.00
3308;DHT22;1666;48.898;9.182;2023-02-16T09:14:23;5.30;1.00
3308;DHT22;1666;48.898;9.182;2023-02-16T09:16:54;5.50;1.00
3308;DHT22;1666;48.898;9.182;2023-02-16T09:19:26;5.60;1.00
3308;DHT22;1666;48.898;9.182;2023-02-16T09:21:56;5.70;1.00
3308;DHT22;1666;48.898;9.182;2023-02-16T09:24:26;5.80;1.00
3308;DHT22;1666;48.898;9.182;2023-02-16T09:26:56;6.00;1.00
3308;DHT22;1666;48.898;9.182;2023-02-16T09:29:25;6.10;1.00
3308;DHT22;1666;48.898;9.182;2023-02-16T09:31:55;6.20;1.00
3308;DHT22;1666;48.898;9.182;2023-02-16T09:34:28;6.30;1.00
3308;DHT22;1666;48.898;9.182;2023-02-16T09:36:57;6.40;1.00
3308;DHT22;1666;48.898;9.182;2023-02-16T09:39:27;6.50;1.00
3308;DHT22;1666;48.898;9.182;2023-02-16T09:42:10;6.60;1.00
3308;DHT22;1666;48.898;9.182;2023-02-16T09:44:51;6.80;1.00
3308;DHT22;1666;48.898;9.182;2023-02-16T09:47:25;7.00;1.00
3308;DHT22;1666;48.898;9.182;2023-02-16T09:50:02;7.10;1.00
3308;DHT22;1666;48.898;9.182;2023-02-16T09:52:37;7.20;1.00
3308;DHT22;1666;48.898;9.182;2023-02-16T09:55:10;7.40;1.00
3308;DHT22;1666;48.898;9.182;2023-02-16T09:57:48;7.50;1.00
3308;DHT22;1666;48.898;9.182;2023-02-16T10:00:42;7.70;1.00
3308;DHT22;1666;48.898;9.182;2023-02-16T10:03:22;7.80;1.00
3308;DHT22;1666;48.898;9.182;2023-02-16T10:08:54;8.10;1.00
3308;DHT22;1666;48.898;9.182;2023-02-16T10:11:29;8.20;1.00
3308;DHT22;1666;48.898;9.182;2023-02-16T10:14:16;8.30;1.00
3308;DHT22;1666;48.898;9.182;2023-02-16T10:16:51;8.50;1.00
3308;DHT22;1666;48.898;9.182;2023-02-16T10:19:27;8.60;1.00
3308;DHT22;1666;48.898;9.182;2023-02-16T10:22:04;8.70;1.00
3308;DHT22;1666;48.898;9.182;2023-02-16T10:24:40;8.80;1.00
3308;DHT22;1666;48.898;9.182;2023-02-16T10:27:14;8.90;1.00
3308;DHT22;1666;48.898;9.182;2023-02-16T10:29:44;8.90;1.00
3308;DHT22;1666;48.898;9.182;2023-02-16T10:32:23;9.10;1.00
3308;DHT22;1666;48.898;9.182;2023-02-16T10:35:02;9.10;1.00
3308;DHT22;1666;48.898;9.182;2023-02-16T10:37:56;9.30;1.00
3308;DHT22;1666;48.898;9.182;2023-02-16T10:40:35;9.40;1.00
3308;DHT22;1666;48.898;9.182;2023-02-16T10:43:12;9.50;1.00
3308;DHT22;1666;48.898;9.182;2023-02-16T10:45:49;9.60;1.00
3308;DHT22;1666;48.898;9.182;2023-02-16T10:48:21;9.70;1.00
3308;DHT22;1666;48.898;9.182;2023-02-16T10:50:56;9.90;1.00
3308;DHT22;1666;48.898;9.182;2023-02-16T10:53:35;9.90;1.00
3308;DHT22;1666;48.898;9.182;2023-02-16T10:56:31;10.00;1.00
3308;DHT22;1666;48.898;9.182;2023-02-16T10:59:11;10.10;1.00
3308;DHT22;1666;48.898;9.182;2023-02-16T11:01:44;10.20;1.00
3308;DHT22;1666;48.898;9.182;2023-02-16T11:04:39;10.40;1.00
3308;DHT22;1666;48.898;9.182;2023-02-16T11:07:11;10.50;1.00
3308;DHT22;1666;48.898;9.182;2023-02-16T11:09:46;10.60;1.00
3308;DHT22;1666;48.898;9.182;2023-02-16T11:12:24;10.70;1.00
3308;DHT22;1666;48.898;9.182;2023-02-16T11:14:58;10.70;1.00
3308;DHT22;1666;48.898;9.182;2023-02-16T11:17:31;10.90;1.00
3308;DHT22;1666;48.898;9.182;2023-02-16T11:20:05;11.10;1.00
3308;DHT22;1666;48.898;9.182;2023-02-16T11:22:37;11.20;1.00
3308;DHT22;1666;48.898;9.182;2023-02-16T11:25:24;11.20;1.00
3308;DHT22;1666;48.898;9.182;2023-02-16T11:27:57;11.20;1.00
3308;DHT22;1666;48.898;9.182;2023-02-16T11:30:31;11.20;1.00
3308;DHT22;1666;48.898;9.182;2023-02-16T11:33:03;11.50;1.00
3308;DHT22;1666;48.898;9.182;2023-02-16T11:35:41;11.60;1.00
3308;DHT22;1666;48.898;9.182;2023-02-16T11:38:29;11.60;1.00
3308;DHT22;1666;48.898;9.182;2023-02-16T11:41:04;11.70;1.00
3308;DHT22;1666;48.898;9.182;2023-02-16T11:43:36;11.90;1.00
3308;DHT22;1666;48.898;9.182;2023-02-16T11:46:13;11.90;1.00
3308;DHT22;1666;48.898;9.182;2023-02-16T11:48:43;11.90;1.00
3308;DHT22;1666;48.898;9.182;2023-02-16T11:51:15;11.90;1.00
3308;DHT22;1666;48.898;9.182;2023-02-16T11:54:04;11.90;1.00
3308;DHT22;1666;48.898;9.182;2023-02-16T11:56:37;12.00;1.00
3308;DHT22;1666;48.898;9.182;2023-02-16T11:59:14;12.20;1.00
3308;DHT22;1666;48.898;9.182;2023-02-16T12:02:18;12.30;1.00
3308;DHT22;1666;48.898;9.182;2023-02-16T12:05:06;12.40;1.00
3308;DHT22;1666;48.898;9.182;2023-02-16T12:07:44;12.50;1.00
3308;DHT22;1666;48.898;9.182;2023-02-16T12:10:21;12.70;1.00
3308;DHT22;1666;48.898;9.182;2023-02-16T12:13:00;12.80;1.00
3308;DHT22;1666;48.898;9.182;2023-02-16T12:15:37;12.80;1.00
3308;DHT22;1666;48.898;9.182;2023-02-16T12:18:21;13.00;1.00
3308;DHT22;1666;48.898;9.182;2023-02-16T12:20:58;12.90;1.00
3308;DHT22;1666;48.898;9.182;2023-02-16T12:23:38;12.90;1.00
3308;DHT22;1666;48.898;9.182;2023-02-16T12:26:32;12.90;1.00
3308;DHT22;1666;48.898;9.182;2023-02-16T12:29:17;13.20;1.00
3308;DHT22;1666;48.898;9.182;2023-02-16T12:32:16;13.00;1.00
3308;DHT22;1666;48.898;9.182;2023-02-16T12:34:55;13.00;1.00
3308;DHT22;1666;48.898;9.182;2023-02-16T12:37:33;13.20;1.00
3308;DHT22;1666;48.898;9.182;2023-02-16T12:40:15;13.50;1.00
3308;DHT22;1666;48.898;9.182;2023-02-16T12:43:00;13.40;1.00
3308;DHT22;1666;48.898;9.182;2023-02-16T12:45:36;13.10;1.00
3308;DHT22;1666;48.898;9.182;2023-02-16T12:48:23;13.10;1.00
3308;DHT22;1666;48.898;9.182;2023-02-16T12:50:58;13.30;1.00
3308;DHT22;1666;48.898;9.182;2023-02-16T12:53:40;13.20;1.00
3308;DHT22;1666;48.898;9.182;2023-02-16T12:56:15;13.20;1.00
3308;DHT22;1666;48.898;9.182;2023-02-16T12:58:49;13.00;1.00
3308;DHT22;1666;48.898;9.182;2023-02-16T13:01:26;13.20;1.00
3308;DHT22;1666;48.898;9.182;2023-02-16T13:04:00;13.30;1.00
3308;DHT22;1666;48.898;9.182;2023-02-16T13:06:39;13.20;1.00
3308;DHT22;1666;48.898;9.182;2023-02-16T13:09:21;13.40;1.00
3308;DHT22;1666;48.898;9.182;2023-02-16T13:11:57;13.50;1.00
3308;DHT22;1666;48.898;9.182;2023-02-16T13:14:31;13.40;1.00
3308;DHT22;1666;48.898;9.182;2023-02-16T13:17:09;13.40;1.00
3308;DHT22;1666;48.898;9.182;2023-02-16T13:19:41;13.30;1.00
3308;DHT22;1666;48.898;9.182;2023-02-16T13:22:45;13.50;1.00
3308;DHT22;1666;48.898;9.182;2023-02-16T13:25:29;13.50;1.00
3308;DHT22;1666;48.898;9.182;2023-02-16T13:28:06;13.50;1.00
3308;DHT22;1666;48.898;9.182;2023-02-16T13:30:55;13.40;1.00
3308;DHT22;1666;48.898;9.182;2023-02-16T13:33:44;13.30;1.00
3308;DHT22;1666;48.898;9.182;2023-02-16T13:36:40;13.10;1.00
3308;DHT22;1666;48.898;9.182;2023-02-16T13:39:25;13.20;1.00
3308;DHT22;1666;48.898;9.182;2023-02-16T13:42:08;13.30;1.00
3308;DHT22;1666;48.898;9.182;2023-02-16T13:44:46;13.30;1.00
3308;DHT22;1666;48.898;9.182;2023-02-16T13:47:22;13.10;1.00
3308;DHT22;1666;48.898;9.182;2023-02-16T13:49:58;13.10;1.00
3308;DHT22;1666;48.898;9.182;2023-02-16T13:52:31;13.10;1.00
3308;DHT22;1666;48.898;9.182;2023-02-16T13:55:06;13.20;1.00
3308;DHT22;1666;48.898;9.182;2023-02-16T13:57:57;13.20;1.00
3308;DHT22;1666;48.898;9.182;2023-02-16T14:00:32;13.20;1.00
3308;DHT22;1666;48.898;9.182;2023-02-16T14:03:08;13.20;1.00
3308;DHT22;1666;48.898;9.182;2023-02-16T14:05:42;13.20;1.00
3308;DHT22;1666;48.898;9.182;2023-02-16T14:08:16;13.30;1.00
3308;DHT22;1666;48.898;9.182;2023-02-16T14:11:10;13.20;1.00
3308;DHT22;1666;48.898;9.182;2023-02-16T14:13:47;13.20;1.00
3308;DHT22;1666;48.898;9.182;2023-02-16T14:16:31;13.30;1.00
3308;DHT22;1666;48.898;9.182;2023-02-16T14:19:03;13.50;1.00
3308;DHT22;1666;48.898;9.182;2023-02-16T14:21:39;13.50;1.00
3308;DHT22;1666;48.898;9.182;2023-02-16T14:24:12;13.50;1.00
3308;DHT22;1666;48.898;9.182;2023-02-16T14:26:53;13.60;1.00
3308;DHT22;1666;48.898;9.182;2023-02-16T14:29:27;13.60;1.00
3308;DHT22;1666;48.898;9.182;2023-02-16T14:32:02;13.60;1.00
3308;DHT22;1666;48.898;9.182;2023-02-16T14:34:37;13.60;1.00
3308;DHT22;1666;48.898;9.182;2023-02-16T14:37:29;13.60;1.00
3308;DHT22;1666;48.898;9.182;2023-02-16T14:40:18;13.60;1.00
3308;DHT22;1666;48.898;9.182;2023-02-16T14:42:54;13.60;1.00
3308;DHT22;1666;48.898;9.182;2023-02-16T14:45:52;13.60;1.00
3308;DHT22;1666;48.898;9.182;2023-02-16T14:48:42;13.50;1.00
3308;DHT22;1666;48.898;9.182;2023-02-16T14:51:29;13.60;1.00
3308;DHT22;1666;48.898;9.182;2023-02-16T14:54:20;13.70;1.00
3308;DHT22;1666;48.898;9.182;2023-02-16T14:56:53;13.60;1.00
3308;DHT22;1666;48.898;9.182;2023-02-16T14:59:30;13.60;1.00
3308;DHT22;1666;48.898;9.182;2023-02-16T15:02:23;13.60;1.00
3308;DHT22;1666;48.898;9.182;2023-02-16T15:04:53;13.60;1.00
3308;DHT22;1666;48.898;9.182;2023-02-16T15:07:26;13.60;1.00
3308;DHT22;1666;48.898;9.182;2023-02-16T15:10:02;13.50;1.00
3308;DHT22;1666;48.898;9.182;2023-02-16T15:12:37;13.30;1.00
3308;DHT22;1666;48.898;9.182;2023-02-16T15:15:17;13.40;1.00
3308;DHT22;1666;48.898;9.182;2023-02-16T15:17:49;13.50;1.00
3308;DHT22;1666;48.898;9.182;2023-02-16T15:20:27;13.40;1.00
3308;DHT22;1666;48.898;9.182;2023-02-16T15:23:00;13.40;1.00
3308;DHT22;1666;48.898;9.182;2023-02-16T15:25:36;13.30;1.00
3308;DHT22;1666;48.898;9.182;2023-02-16T15:28:17;13.20;1.00
3308;DHT22;1666;48.898;9.182;2023-02-16T15:30:49;13.20;1.00
3308;DHT22;1666;48.898;9.182;2023-02-16T15:33:35;13.10;1.00
3308;DHT22;1666;48.898;9.182;2023-02-16T15:36:09;13.00;1.00
3308;DHT22;1666;48.898;9.182;2023-02-16T15:38:42;12.90;1.00
3308;DHT22;1666;48.898;9.182;2023-02-16T15:41:24;12.90;1.00
3308;DHT22;1666;48.898;9.182;2023-02-16T15:43:56;12.80;1.00
3308;DHT22;1666;48.898;9.182;2023-02-16T15:46:29;12.60;1.00
3308;DHT22;1666;48.898;9.182;2023-02-16T15:49:10;12.60;1.00
3308;DHT22;1666;48.898;9.182;2023-02-16T15:51:40;12.60;1.00
3308;DHT22;1666;48.898;9.182;2023-02-16T15:54:18;12.60;1.00
3308;DHT22;1666;48.898;9.182;2023-02-16T15:56:54;12.50;1.00
3308;DHT22;1666;48.898;9.182;2023-02-16T15:59:32;12.40;1.00
3308;DHT22;1666;48.898;9.182;2023-02-16T16:02:10;12.40;1.00
3308;DHT22;1666;48.898;9.182;2023-02-16T16:04:43;12.40;1.00
3308;DHT22;1666;48.898;9.182;2023-02-16T16:07:18;12.30;1.00
3308;DHT22;1666;48.898;9.182;2023-02-16T16:09:50;12.20;1.00
3308;DHT22;1666;48.898;9.182;2023-02-16T16:12:23;12.10;1.00
3308;DHT22;1666;48.898;9.182;2023-02-16T16:14:55;12.00;1.00
3308;DHT22;1666;48.898;9.182;2023-02-16T16:17:27;12.00;1.00
3308;DHT22;1666;48.898;9.182;2023-02-16T16:20:16;11.90;1.00
3308;DHT22;1666;48.898;9.182;2023-02-16T16:22:54;11.90;1.00
3308;DHT22;1666;48.898;9.182;2023-02-16T16:25:35;11.80;1.00
3308;DHT22;1666;48.898;9.182;2023-02-16T16:28:12;11.80;1.00
3308;DHT22;1666;48.898;9.182;2023-02-16T16:30:42;11.90;1.00
3308;DHT22;1666;48.898;9.182;2023-02-16T16:33:13;11.80;1.00
3308;DHT22;1666;48.898;9.182;2023-02-16T16:35:45;11.70;1.00
3308;DHT22;1666;48.898;9.182;2023-02-16T16:38:22;11.70;1.00
3308;DHT22;1666;48.898;9.182;2023-02-16T16:40:54;11.60;1.00
3308;DHT22;1666;48.898;9.182;2023-02-16T16:43:29;11.60;1.00
3308;DHT22;1666;48.898;9.182;2023-02-16T16:46:11;11.50;1.00
3308;DHT22;1666;48.898;9.182;2023-02-16T16:48:43;11.40;1.00
3308;DHT22;1666;48.898;9.182;2023-02-16T16:51:15;11.60;1.00
3308;DHT22;1666;48.898;9.182;2023-02-16T16:53:52;11.60;1.00
3308;DHT22;1666;48.898;9.182;2023-02-16T16:56:23;11.40;1.00
3308;DHT22;1666;48.898;9.182;2023-02-16T16:58:57;11.30;1.00
3308;DHT22;1666;48.898;9.182;2023-02-16T17:01:28;11.30;1.00
3308;DHT22;1666;48.898;9.182;2023-02-16T17:03:58;11.20;1.00
3308;DHT22;1666;48.898;9.182;2023-02-16T17:06:29;11.10;1.00
3308;DHT22;1666;48.898;9.182;2023-02-16T17:08:59;11.20;1.00
3308;DHT22;1666;48.898;9.182;2023-02-16T17:11:32;11.10;1.00
3308;DHT22;1666;48.898;9.182;2023-02-16T17:14:08;11.00;1.00
3308;DHT22;1666;48.898;9.182;2023-02-16T17:16:40;11.00;1.00
3308;DHT22;1666;48.898;9.182;2023-02-16T17:19:11;11.10;1.00